Flight Track Log - Related Links

Times and Time Zones

All times are in EDT time to prevent confusion due to time zone crossing. See the VRD932 flight status page for this flight to view local times or setup timezone preferences in your user account.

Time Position Orientation Groundspeed Altitude Reporting Facility
EDT Latitude Longitude Course Direction KTS MPH feet Rate Location/Type
08:44PM 37.6160 -122.3810 118° Southeast 9 10  Level FlightAware
08:48PM 37.6150 -122.3810 180° South 22 Level FlightAware
08:48PM 37.6160 -122.3810 360° North 27 Level FlightAware
08:49PM 37.6150 -122.3810 180° South 27 Level FlightAware
08:49PM 37.6160 -122.3810 360° North 28 Level FlightAware
08:52PM 37.5510 -122.4323 218° Southwest  Level FlightAware Approximate
08:53PM 37.4670 -122.4422 130° Southeast  Level FlightAware Approximate
08:54PM 37.4217 -122.3317 113° Southeast  Level FlightAware Approximate
08:55PM 37.3582 -122.2364 136° Southeast  Level FlightAware Approximate
08:55PM 37.6150 -122.3810 136° Southeast  Level FlightAware
08:57PM 37.6160 -122.3810 360° North 42 Level FlightAware
08:58PM 37.6150 -122.3810 180° South 12 14 52 Level FlightAware
08:58PM 37.6140 -122.3810 180° South 22 25 54 Level FlightAware
08:59PM 37.6130 -122.3820 218° Southwest 24 28 60 Level FlightAware
08:59PM 37.6120 -122.3830 218° Southwest 22 25 62 Level FlightAware
09:00PM 37.6110 -122.3840 218° Southwest 25 29 67 Level FlightAware
09:00PM 37.6090 -122.3840 180° South 12 14 72 Level FlightAware
09:03PM 37.4477 -122.4099 113° Southeast  Level FlightAware Approximate
09:04PM 37.4042 -122.2980 130° Southeast  Level FlightAware Approximate
09:04PM 37.6090 -122.3820 136° Southeast 13 15  Level FlightAware
09:05PM 37.3348 -122.2084 136° Southeast  Level FlightAware Approximate
09:07PM 37.5526 -122.4308 218° Southwest  Level FlightAware Approximate
09:07PM 37.6278 -122.3700 218° Southwest 152 175 500  Level FlightAware ADS-B
09:07PM 37.6344 -122.3660 26° Northeast 144 166 1,000 2,471 Climbing FlightAware ADS-B
09:07PM 37.6385 -122.3650 11° North 140 161 1,200 2,182 Climbing FlightAware ADS-B
09:07PM 37.6417 -122.3660 346° North 141 162 1,400 1,714 Climbing FlightAware ADS-B
09:07PM 37.6521 -122.3680 351° North 147 169 1,800 1,714 Climbing FlightAware ADS-B
09:07PM 37.6562 -122.3680 360° North 149 171 2,000 2,000 Climbing FlightAware ADS-B
09:08PM 37.6645 -122.3680 360° North 149 171 2,400 1,714 Climbing FlightAware ADS-B
09:08PM 37.6700 -122.3690 352° North 150 173 2,600 1,778 Climbing FlightAware ADS-B
09:08PM 37.6789 -122.3800 316° Northwest 147 169 3,200 1,846 Climbing FlightAware ADS-B
09:08PM 37.6807 -122.3850 294° West 148 170 3,400 1,000 Climbing FlightAware ADS-B
09:08PM 37.6810 -122.3900 274° West 153 176 3,400 400 Level FlightAware ADS-B
09:08PM 37.6792 -122.3980 254° West 168 193 3,500 783 Climbing FlightAware ADS-B
09:09PM 37.6711 -122.4080 224° Southwest 187 215 3,700 833 Climbing FlightAware ADS-B
09:09PM 37.6506 -122.4170 199° South 229 264 4,000 1,125 Climbing FlightAware ADS-B
09:09PM 37.6409 -122.4190 189° South 242 278 4,300 1,750 Climbing FlightAware ADS-B
09:09PM 37.6227 -122.4240 192° South 263 303 4,700 2,129 Climbing FlightAware ADS-B
09:10PM 37.6046 -122.4290 192° South 269 310 5,400 2,813 Climbing FlightAware ADS-B
09:10PM 37.5855 -122.4350 194° South 270 311 6,200 2,903 Climbing FlightAware ADS-B
09:10PM 37.5656 -122.4410 193° South 274 315 6,900 2,700 Climbing FlightAware ADS-B
09:11PM 37.5347 -122.4500 193° South 285 328 8,000 2,516 Climbing FlightAware ADS-B
09:11PM 37.5265 -122.4500 180° South 287 330 8,200 2,667 Climbing FlightAware ADS-B
09:11PM 37.5233 -122.4490 166° South 288 331 8,400 3,231 Climbing FlightAware ADS-B
09:11PM 37.5100 -122.4440 163° South 290 334 8,900 3,000 Climbing FlightAware ADS-B
09:11PM 37.5022 -122.4400 158° South 291 335 9,200 2,471 Climbing FlightAware ADS-B
09:11PM 37.4895 -122.4320 153° Southeast 294 338 9,600 2,000 Climbing FlightAware ADS-B
09:12PM 37.4502 -122.4060 152° Southeast 315 362 10,600 1,770 Climbing FlightAware ADS-B
09:12PM 37.4091 -122.3790 152° Southeast 344 396 11,400 1,756 Climbing FlightAware ADS-B
09:12PM 37.3947 -122.3670 146° Southeast 349 402 11,800 2,500 Climbing FlightAware ADS-B
09:13PM 37.3803 -122.3480 134° Southeast 354 407 12,400 2,651 Climbing FlightAware ADS-B
09:13PM 37.3476 -122.3000 131° Southeast 358 412 13,700 2,656 Climbing FlightAware ADS-B
09:14PM 37.3146 -122.2520 131° Southeast 361 415 15,100 2,459 Climbing FlightAware ADS-B
09:14PM 37.2799 -122.2030 132° Southeast 373 429 16,200 2,226 Climbing FlightAware ADS-B
09:15PM 37.2431 -122.1520 132° Southeast 379 436 17,400 2,226 Climbing FlightAware ADS-B
09:15PM 37.2077 -122.1020 132° Southeast 386 444 18,500 2,226 Climbing FlightAware ADS-B
09:16PM 37.1689 -122.0480 132° Southeast 391 450 19,700 2,095 Climbing FlightAware ADS-B
09:16PM 37.1320 -121.9960 132° Southeast 398 458 20,700 1,935 Climbing FlightAware ADS-B
09:17PM 37.0948 -121.9440 132° Southeast 403 464 21,700 1,726 Climbing FlightAware ADS-B
09:18PM 37.0405 -121.8680 132° Southeast 414 476 22,800 1,644 Climbing FlightAware ADS-B
09:18PM 37.0002 -121.8120 132° Southeast 421 484 23,700 1,594 Climbing FlightAware ADS-B
09:19PM 36.9575 -121.7530 132° Southeast 428 493 24,500 1,619 Climbing FlightAware ADS-B
09:19PM 36.9169 -121.6960 132° Southeast 431 496 25,400 1,800 Climbing FlightAware ADS-B
09:20PM 36.8762 -121.6400 132° Southeast 433 498 26,300 1,770 Climbing FlightAware ADS-B
09:20PM 36.8351 -121.5830 132° Southeast 433 498 27,200 1,672 Climbing FlightAware ADS-B
09:21PM 36.7944 -121.5270 132° Southeast 434 499 28,000 1,869 Climbing FlightAware ADS-B
09:21PM 36.7532 -121.4700 132° Southeast 430 495 29,100 1,742 Climbing FlightAware ADS-B
09:22PM 36.7124 -121.4130 132° Southeast 432 497 29,800 1,180 Climbing FlightAware ADS-B
09:22PM 36.6713 -121.3570 132° Southeast 438 504 30,300 1,325 Climbing FlightAware ADS-B
09:23PM 36.6080 -121.2710 133° Southeast 433 498 31,500 1,483 Climbing FlightAware
09:24PM 36.5520 -121.1930 132° Southeast 430 495 32,500 1,343 Climbing FlightAware
09:24PM 36.5193 -121.1490 133° Southeast 430 495 33,000 1,187 Climbing FlightAware ADS-B
09:25PM 36.4298 -121.0270 132° Southeast 430 495 34,300 1,113 Climbing FlightAware ADS-B
09:26PM 36.3891 -120.9720 133° Southeast 429 494 34,800 984 Climbing FlightAware ADS-B
09:26PM 36.3489 -120.9170 132° Southeast 428 493 35,300 1,048 Climbing FlightAware ADS-B
09:27PM 36.3040 -120.8560 132° Southeast 428 493 35,900 1,140 Climbing FlightAware ADS-B
09:28PM 36.2170 -120.7380 132° Southeast 419 482 37,200 1,135 Climbing FlightAware
09:29PM 36.1600 -120.6620 133° Southeast 411 473 38,000 857 Climbing FlightAware
09:29PM 36.1080 -120.5920 133° Southeast 411 473 38,400 571 Climbing FlightAware
09:30PM 36.0530 -120.5180 133° Southeast 411 473 38,800 545 Climbing FlightAware
09:30PM 36.0369 -120.4970 133° Southeast 412 474 38,900 146 Climbing FlightAware ADS-B
09:31PM 35.9440 -120.3730 133° Southeast 413 475 39,000 52 Climbing FlightAware
09:32PM 35.8900 -120.3000 132° Southeast 411 473 39,000  Level FlightAware
09:33PM 35.8312 -120.2230 133° Southeast 410 472 39,000  Level FlightAware ADS-B
09:33PM 35.7890 -120.1670 133° Southeast 408 470 39,000  Level FlightAware
09:34PM 35.7350 -120.0950 133° Southeast 409 471 39,000  Level FlightAware
09:35PM 35.6880 -120.0340 133° Southeast 409 471 39,000  Level FlightAware
09:35PM 35.6350 -119.9690 135° Southeast 404 465 39,000  Level FlightAware
09:36PM 35.5780 -119.9190 144° Southeast 403 464 39,000  Level FlightAware
09:37PM 35.5130 -119.8630 145° Southeast 403 464 39,000  Level FlightAware
09:37PM 35.4520 -119.8100 145° Southeast 403 464 39,000  Level FlightAware
09:38PM 35.3910 -119.7580 145° Southeast 404 465 39,000  Level FlightAware
09:39PM 35.3300 -119.7060 145° Southeast 405 466 39,000 -143 Level FlightAware
09:39PM 35.2620 -119.6470 145° Southeast 408 470 38,800 -1,256 Descending FlightAware
09:40PM 35.1980 -119.5920 145° Southeast 409 471 37,200 -2,667 Descending FlightAware
09:41PM 35.1370 -119.5400 145° Southeast 419 482 35,200 -3,325 Descending FlightAware
09:41PM 35.0650 -119.4790 145° Southeast 431 496 32,600 -3,325 Descending FlightAware
09:42PM 35.0020 -119.4250 145° Southeast 435 501 30,600 -2,734 Descending FlightAware
09:43PM 34.9360 -119.3690 145° Southeast 425 489 29,000 -2,341 Descending FlightAware
09:43PM 34.8700 -119.3130 145° Southeast 416 479 27,400 -2,296 Descending FlightAware
09:44PM 34.8090 -119.2610 145° Southeast 410 472 25,900 -2,308 Descending FlightAware
09:45PM 34.7480 -119.2100 146° Southeast 402 463 24,400 -1,800 Descending FlightAware
09:45PM 34.6870 -119.1580 145° Southeast 398 458 23,500 -1,920 Descending FlightAware
09:46PM 34.8440 -119.2910 325° Northwest 406 467 22,000 -2,514 Descending FlightAware
09:47PM 34.5750 -119.0640 145° Southeast 394 453 20,400 -2,250 Descending FlightAware
09:47PM 34.5150 -119.0140 146° Southeast 380 437 19,000 -1,918 Descending FlightAware
09:48PM 34.4370 -118.9480 145° Southeast 374 430 17,300 -1,810 Descending FlightAware
09:49PM 34.3540 -118.8810 146° Southeast 372 428 15,500 -1,886 Descending FlightAware
09:50PM 34.2730 -118.8510 163° South 365 420 14,000 -1,902 Descending FlightAware
09:51PM 34.2150 -118.8290 163° South 360 414 12,900 -1,765 Descending FlightAware
09:51PM 34.1660 -118.8110 163° South 358 412 12,000 -1,643 Descending FlightAware
09:52PM 34.0810 -118.7800 163° South 348 400 10,600 -1,519 Descending FlightAware
09:52PM 34.0480 -118.7550 148° Southeast 337 388 10,000 -750 Descending FlightAware
09:53PM 34.0350 -118.7190 114° Southeast 312 359 10,000 -98 Level FlightAware
09:54PM 34.0290 -118.6510 96° East 301 346 9,900 -627 Descending FlightAware
09:54PM 34.0250 -118.6090 97° East 299 344 9,300 -1,527 Descending FlightAware
09:54PM 34.0200 -118.5600 97° East 297 342 8,500 -1,579 Descending FlightAware
09:55PM 34.0160 -118.5150 96° East 296 341 7,800 -1,111 Descending FlightAware
09:55PM 34.0120 -118.4760 97° East 275 316 7,500 -1,000 Descending FlightAware
09:56PM 34.0080 -118.4320 96° East 253 291 6,900 -931 Descending FlightAware
09:56PM 34.0110 -118.3960 84° East 227 261 6,600 -712 Descending FlightAware
09:57PM 34.0150 -118.3590 83° East 194 223 6,200 -1,200 Descending FlightAware
09:57PM 34.0180 -118.3340 82° East 194 223 5,500 -1,846 Descending FlightAware
09:58PM 34.0220 -118.3040 81° East 191 220 4,600 -1,909 Descending FlightAware
09:58PM 34.0240 -118.2870 82° East 192 221 4,100 -1,459 Descending FlightAware
09:58PM 34.0270 -118.2690 79° East 188 216 3,700 -1,294 Descending FlightAware
09:59PM 34.0270 -118.2400 90° East 178 205 3,000 -1,463 Descending FlightAware
09:59PM 34.0200 -118.2310 133° Southeast 179 206 2,700 -1,105 Descending FlightAware
09:59PM 33.9960 -118.2330 184° South 171 197 2,300 -441 Descending FlightAware
10:00PM 33.9770 -118.2640 234° Southwest 182 209 2,200 -203 Descending FlightAware
10:00PM 33.9690 -118.2810 240° Southwest 183 211 2,100 -667 Descending FlightAware
10:01PM 33.9640 -118.2970 249° West 182 209 1,800 -894 Descending FlightAware
10:01PM 33.9600 -118.3230 259° West 160 184 1,400 -764 Descending FlightAware
10:02PM 33.9580 -118.3430 263° West 145 167 1,100 -712 Descending FlightAware
10:02PM 33.9550 -118.3710 263° West 137 158 700 -700 Descending FlightAware
10:03PM 33.9530 -118.3900 263° West 131 151 400 -340 Descending FlightAware
10:03PM 33.9520 -118.4060 266° West 131 151 400 783 Level FlightAware
10:04PM 33.9481 -118.4369 266° West 149 171 1,300 1,286 Climbing Los Angeles Center
10:06PM 33.9425 -118.4081 239° Southwest  Level Estimated

Login

Don't have an account? Register now (free) for customized features, flight alerts, and more!